createdAt,value
2022-07-29T00:00:57.602Z,48.30
2022-07-29T00:03:24.284Z,48.40
2022-07-29T00:05:52.927Z,48.40
2022-07-29T00:08:19.601Z,48.40
2022-07-29T00:10:46.265Z,48.30
2022-07-29T00:13:12.904Z,48.20
2022-07-29T00:15:39.544Z,48.10
2022-07-29T00:18:06.181Z,48.10
2022-07-29T00:20:32.789Z,48.00
2022-07-29T00:22:59.436Z,47.90
2022-07-29T00:25:26.060Z,47.90
2022-07-29T00:27:52.715Z,47.90
2022-07-29T00:30:19.359Z,47.90
2022-07-29T00:32:46.003Z,47.90
2022-07-29T00:35:31.385Z,47.90
2022-07-29T00:38:00.241Z,47.90
2022-07-29T00:40:28.723Z,47.90
2022-07-29T00:42:55.366Z,47.90
2022-07-29T00:45:23.069Z,47.90
2022-07-29T00:47:49.859Z,47.90
2022-07-29T00:50:16.491Z,48.00
2022-07-29T00:52:43.310Z,48.00
2022-07-29T00:55:11.997Z,48.10
2022-07-29T00:57:39.066Z,48.10
2022-07-29T01:00:08.111Z,48.30
2022-07-29T01:02:34.798Z,48.30
2022-07-29T01:05:02.345Z,48.30
2022-07-29T01:07:29.053Z,48.30
2022-07-29T01:09:55.657Z,48.30
2022-07-29T01:12:29.500Z,48.30
2022-07-29T01:14:56.148Z,48.30
2022-07-29T01:17:27.084Z,48.10
2022-07-29T01:20:12.633Z,48.00
2022-07-29T01:23:09.370Z,48.00
2022-07-29T01:25:56.307Z,48.00
2022-07-29T01:28:51.325Z,48.00
2022-07-29T01:31:25.021Z,48.00
2022-07-29T01:33:58.497Z,48.00
2022-07-29T01:36:33.173Z,47.90
2022-07-29T01:39:09.832Z,47.90
2022-07-29T01:41:37.748Z,47.90
2022-07-29T01:44:19.933Z,48.00
2022-07-29T01:46:53.202Z,47.90
2022-07-29T01:49:23.057Z,47.90
2022-07-29T01:52:02.121Z,48.00
2022-07-29T01:54:46.883Z,48.10
2022-07-29T01:57:15.292Z,48.10
2022-07-29T01:59:42.134Z,48.20
2022-07-29T02:02:09.596Z,48.30
2022-07-29T02:04:37.032Z,48.30
2022-07-29T02:07:06.338Z,48.30
2022-07-29T02:09:34.478Z,48.30
2022-07-29T02:12:02.152Z,48.40
2022-07-29T02:14:30.777Z,48.30
2022-07-29T02:16:57.389Z,48.30
2022-07-29T02:19:24.921Z,48.10
2022-07-29T02:21:52.363Z,48.10
2022-07-29T02:24:19.301Z,48.00
2022-07-29T02:26:46.079Z,48.00
2022-07-29T02:29:12.745Z,48.00
2022-07-29T02:31:39.437Z,48.00
2022-07-29T02:34:07.563Z,47.90
2022-07-29T02:36:34.215Z,47.90
2022-07-29T02:39:01.680Z,47.90
2022-07-29T02:41:48.528Z,48.00
2022-07-29T02:44:20.227Z,48.00
2022-07-29T02:47:13.630Z,47.90
2022-07-29T02:50:05.998Z,47.90
2022-07-29T02:52:46.174Z,48.00
2022-07-29T02:55:35.349Z,48.00
2022-07-29T02:58:29.268Z,48.10
2022-07-29T03:01:02.582Z,48.10
2022-07-29T03:03:31.140Z,48.20
2022-07-29T03:05:58.091Z,48.20
2022-07-29T03:08:24.716Z,48.30
2022-07-29T03:10:51.357Z,48.30
2022-07-29T03:13:18.115Z,48.30
2022-07-29T03:15:45.103Z,48.30
2022-07-29T03:18:11.826Z,48.30
2022-07-29T03:20:38.978Z,48.20
2022-07-29T03:23:05.741Z,48.10
2022-07-29T03:25:32.369Z,48.00
2022-07-29T03:27:58.982Z,48.00
2022-07-29T03:30:25.634Z,48.60
2022-07-29T03:32:53.392Z,47.90
2022-07-29T03:35:20.999Z,47.90
2022-07-29T03:37:47.649Z,47.90
2022-07-29T03:40:18.263Z,47.90
2022-07-29T03:42:44.906Z,48.00
2022-07-29T03:45:13.512Z,47.90
2022-07-29T03:47:51.089Z,47.90
2022-07-29T03:50:20.226Z,47.90
2022-07-29T03:52:47.021Z,47.90
2022-07-29T03:55:13.652Z,47.90
2022-07-29T03:57:40.555Z,48.00
2022-07-29T04:00:07.937Z,48.10
2022-07-29T04:02:34.600Z,48.20
2022-07-29T04:05:01.242Z,48.20
2022-07-29T04:07:27.944Z,48.20
2022-07-29T04:09:54.581Z,48.30
2022-07-29T04:12:21.939Z,48.30
2022-07-29T04:14:48.585Z,48.30
2022-07-29T04:17:15.224Z,48.30
2022-07-29T04:19:41.838Z,48.30
2022-07-29T04:22:08.464Z,48.20
2022-07-29T04:24:35.619Z,48.20
2022-07-29T04:27:02.246Z,48.10
2022-07-29T04:29:28.875Z,48.00
2022-07-29T04:31:55.500Z,48.00
2022-07-29T04:34:22.168Z,48.00
2022-07-29T04:36:48.802Z,47.90
2022-07-29T04:39:20.640Z,47.90
2022-07-29T04:41:49.053Z,47.90
2022-07-29T04:44:15.883Z,48.00
2022-07-29T04:46:43.862Z,48.00
2022-07-29T04:49:10.541Z,47.90
2022-07-29T04:51:37.202Z,48.00
2022-07-29T04:54:03.875Z,47.90
2022-07-29T04:56:30.497Z,48.00
2022-07-29T04:58:57.285Z,47.90
2022-07-29T05:01:23.959Z,48.10
2022-07-29T05:03:50.619Z,48.10
2022-07-29T05:06:17.255Z,48.20
2022-07-29T05:08:43.859Z,48.20
2022-07-29T05:11:12.249Z,48.20
2022-07-29T05:13:45.375Z,48.20
2022-07-29T05:16:13.160Z,48.30
2022-07-29T05:18:40.263Z,48.30
2022-07-29T05:21:06.893Z,48.30
2022-07-29T05:23:33.504Z,48.20
2022-07-29T05:26:00.142Z,48.10
2022-07-29T05:28:26.750Z,48.10
2022-07-29T05:30:53.439Z,48.00
2022-07-29T05:33:35.270Z,48.00
2022-07-29T05:36:07.755Z,48.00
2022-07-29T05:38:37.675Z,47.90
2022-07-29T05:41:05.135Z,47.90
2022-07-29T05:43:31.778Z,47.90
2022-07-29T05:45:58.601Z,47.90
2022-07-29T05:48:25.313Z,47.90
2022-07-29T05:50:51.944Z,47.90
2022-07-29T05:53:20.062Z,47.90
2022-07-29T05:55:48.127Z,47.90
2022-07-29T05:58:14.781Z,47.90
2022-07-29T06:00:41.428Z,47.90
2022-07-29T06:03:08.057Z,47.90
2022-07-29T06:05:34.689Z,48.00
2022-07-29T06:08:01.319Z,48.00
2022-07-29T06:10:27.970Z,48.00
2022-07-29T06:12:54.749Z,48.00
2022-07-29T06:15:21.411Z,48.00
2022-07-29T06:18:00.578Z,48.00
2022-07-29T06:20:32.438Z,48.00
2022-07-29T06:22:59.526Z,48.00
2022-07-29T06:25:26.301Z,48.00
2022-07-29T06:27:53.238Z,47.90
2022-07-29T06:30:19.899Z,47.90
2022-07-29T06:32:46.516Z,47.90
2022-07-29T06:35:38.626Z,47.80
2022-07-29T06:38:00.031Z,47.80
2022-07-29T06:40:45.475Z,47.80
2022-07-29T06:43:12.137Z,47.80
2022-07-29T06:45:42.169Z,47.80
2022-07-29T06:48:09.553Z,47.80
2022-07-29T06:50:36.200Z,47.80
2022-07-29T06:53:02.821Z,47.80
2022-07-29T06:55:29.437Z,47.80
2022-07-29T06:57:56.060Z,47.80
2022-07-29T07:00:22.745Z,47.80
2022-07-29T07:02:49.500Z,47.80
2022-07-29T07:05:16.180Z,48.60
2022-07-29T07:07:42.807Z,48.10
2022-07-29T07:10:09.702Z,48.10
2022-07-29T07:12:36.329Z,48.10
2022-07-29T07:15:03.192Z,48.10
2022-07-29T07:17:29.839Z,48.10
2022-07-29T07:19:56.444Z,48.10
2022-07-29T07:22:23.077Z,48.20
2022-07-29T07:24:49.750Z,48.20
2022-07-29T07:27:16.394Z,48.20
2022-07-29T07:29:44.194Z,48.10
2022-07-29T07:32:11.241Z,48.00
2022-07-29T07:34:38.903Z,48.00
2022-07-29T07:37:06.066Z,47.90
2022-07-29T07:39:32.703Z,47.90
2022-07-29T07:41:59.432Z,47.90
2022-07-29T07:44:26.060Z,47.90
2022-07-29T07:46:53.033Z,47.90
2022-07-29T07:49:21.363Z,47.90
2022-07-29T07:51:51.058Z,47.90
2022-07-29T07:54:18.602Z,47.90
2022-07-29T07:56:49.851Z,47.90
2022-07-29T07:59:19.617Z,47.90
2022-07-29T08:01:48.183Z,47.90
2022-07-29T08:04:27.672Z,47.90
2022-07-29T08:06:55.981Z,48.00
2022-07-29T08:09:29.207Z,47.90
2022-07-29T08:11:56.531Z,47.90
2022-07-29T08:14:23.151Z,48.00
2022-07-29T08:16:50.165Z,48.00
2022-07-29T08:19:16.883Z,48.00
2022-07-29T08:21:43.496Z,48.60
2022-07-29T08:24:28.637Z,48.00
2022-07-29T08:26:55.274Z,48.00
2022-07-29T08:29:21.892Z,48.00
2022-07-29T08:31:48.529Z,48.00
2022-07-29T08:34:15.275Z,47.90
2022-07-29T08:36:41.904Z,48.00
2022-07-29T08:39:08.541Z,47.90
2022-07-29T08:41:35.504Z,47.90
2022-07-29T08:44:02.124Z,47.90
2022-07-29T08:46:28.783Z,47.90
2022-07-29T08:48:55.442Z,47.80
2022-07-29T08:51:22.370Z,47.80
2022-07-29T08:53:49.763Z,47.80
2022-07-29T08:56:18.209Z,47.80
2022-07-29T08:58:47.993Z,47.80
2022-07-29T09:01:35.190Z,47.80
2022-07-29T09:04:05.678Z,47.80
2022-07-29T09:06:34.200Z,47.90
2022-07-29T09:09:01.197Z,47.90
2022-07-29T09:11:27.922Z,48.00
2022-07-29T09:13:55.019Z,47.90
2022-07-29T09:16:43.790Z,48.10
2022-07-29T09:19:20.862Z,48.10
2022-07-29T09:21:59.809Z,48.10
2022-07-29T09:24:28.060Z,48.10
2022-07-29T09:26:55.007Z,48.10
2022-07-29T09:29:24.052Z,48.20
2022-07-29T09:31:52.171Z,48.20
2022-07-29T09:34:32.555Z,48.10
2022-07-29T09:36:59.204Z,48.10
2022-07-29T09:39:41.051Z,48.00
2022-07-29T09:42:07.678Z,48.00
2022-07-29T09:44:49.072Z,48.00
2022-07-29T09:47:17.019Z,48.00
2022-07-29T09:50:00.292Z,48.00
2022-07-29T09:52:27.801Z,48.00
2022-07-29T09:54:57.261Z,48.00
2022-07-29T09:57:30.847Z,48.00
2022-07-29T10:00:02.251Z,48.00
2022-07-29T10:02:30.460Z,48.00
2022-07-29T10:04:57.236Z,48.00
2022-07-29T10:07:23.890Z,48.00
2022-07-29T10:09:55.595Z,48.00
2022-07-29T10:12:22.504Z,48.10
2022-07-29T10:14:49.144Z,48.20
2022-07-29T10:17:15.759Z,48.20
2022-07-29T10:19:43.352Z,48.20
2022-07-29T10:22:10.597Z,48.30
2022-07-29T10:24:38.377Z,48.30
2022-07-29T10:27:06.601Z,48.30
2022-07-29T10:29:33.281Z,48.30
2022-07-29T10:32:29.761Z,48.30
2022-07-29T10:35:11.337Z,48.30
2022-07-29T10:37:47.678Z,48.10
2022-07-29T10:40:48.238Z,48.10
2022-07-29T10:43:39.419Z,48.00
2022-07-29T10:46:09.135Z,48.10
2022-07-29T10:48:51.362Z,48.10
2022-07-29T10:51:18.168Z,48.00
2022-07-29T10:53:49.631Z,48.00
2022-07-29T10:56:34.632Z,48.00
2022-07-29T10:59:27.169Z,48.00
2022-07-29T11:02:42.163Z,48.10
2022-07-29T11:05:12.069Z,48.10
2022-07-29T11:07:45.539Z,48.00
2022-07-29T11:10:16.190Z,48.10
2022-07-29T11:12:43.243Z,48.10
2022-07-29T11:15:17.861Z,48.20
2022-07-29T11:17:53.742Z,48.20
2022-07-29T11:20:38.484Z,48.20
2022-07-29T11:23:20.326Z,48.20
2022-07-29T11:26:28.327Z,48.20
2022-07-29T11:28:55.618Z,48.20
2022-07-29T11:31:39.033Z,48.20
2022-07-29T11:34:30.172Z,48.20
2022-07-29T11:37:14.825Z,48.30
2022-07-29T11:39:55.575Z,48.20
2022-07-29T11:42:32.513Z,48.20
2022-07-29T11:45:09.070Z,48.20
2022-07-29T11:48:05.418Z,48.20
2022-07-29T11:50:45.600Z,48.10
2022-07-29T11:53:16.101Z,48.10
2022-07-29T11:55:50.863Z,48.20
2022-07-29T11:58:22.973Z,48.10
2022-07-29T12:00:52.015Z,48.10
2022-07-29T12:03:35.532Z,48.10
2022-07-29T12:06:04.761Z,48.10
2022-07-29T12:08:43.489Z,48.10
2022-07-29T12:11:20.753Z,48.10
2022-07-29T12:13:49.282Z,48.10
2022-07-29T12:16:16.368Z,48.10
2022-07-29T12:19:05.167Z,48.10
2022-07-29T12:21:56.476Z,48.20
2022-07-29T12:24:26.967Z,48.20
2022-07-29T12:27:00.407Z,48.20
2022-07-29T12:29:33.801Z,48.20
2022-07-29T12:32:02.914Z,48.30
2022-07-29T12:34:30.226Z,48.30
2022-07-29T12:36:56.856Z,48.30
2022-07-29T12:39:23.554Z,48.30
2022-07-29T12:41:50.181Z,48.30
2022-07-29T12:44:16.787Z,48.30
2022-07-29T12:46:43.478Z,48.70
2022-07-29T12:49:10.209Z,48.40
2022-07-29T12:51:38.368Z,48.40
2022-07-29T12:54:11.176Z,48.40
2022-07-29T12:56:43.247Z,48.30
2022-07-29T12:59:21.399Z,48.40
2022-07-29T13:01:50.098Z,48.40
2022-07-29T13:04:27.626Z,48.40
2022-07-29T13:07:05.141Z,48.40
2022-07-29T13:09:44.930Z,48.40
2022-07-29T13:12:13.144Z,48.40
2022-07-29T13:14:40.519Z,48.50
2022-07-29T13:17:10.194Z,48.50
2022-07-29T13:19:41.716Z,48.50
2022-07-29T13:22:12.156Z,48.50
2022-07-29T13:24:51.330Z,48.50
2022-07-29T13:27:18.995Z,48.50
2022-07-29T13:29:45.626Z,48.50
2022-07-29T13:32:12.782Z,48.50
2022-07-29T13:34:39.449Z,48.60
2022-07-29T13:37:06.135Z,48.50
2022-07-29T13:39:32.787Z,48.60
2022-07-29T13:41:59.716Z,48.60
2022-07-29T13:44:27.011Z,48.60
2022-07-29T13:46:53.663Z,48.60
2022-07-29T13:49:20.332Z,48.60
2022-07-29T13:51:46.980Z,48.60
2022-07-29T13:54:13.601Z,48.70
2022-07-29T13:56:40.277Z,48.60
2022-07-29T13:59:06.905Z,48.60
2022-07-29T14:01:33.647Z,48.60
2022-07-29T14:04:00.427Z,48.60
2022-07-29T14:06:27.264Z,48.60
2022-07-29T14:08:56.554Z,48.60
2022-07-29T14:11:23.182Z,48.60
2022-07-29T14:13:49.811Z,48.60
2022-07-29T14:16:16.496Z,48.60
2022-07-29T14:18:43.485Z,48.60
2022-07-29T14:21:10.097Z,48.60
2022-07-29T14:23:37.335Z,48.60
2022-07-29T14:26:08.973Z,48.60
2022-07-29T14:28:41.951Z,48.70
2022-07-29T14:31:08.758Z,48.70
2022-07-29T14:33:35.375Z,48.60
2022-07-29T14:36:02.083Z,48.50
2022-07-29T14:38:28.691Z,48.50
2022-07-29T14:40:55.345Z,48.50
2022-07-29T14:43:21.975Z,48.50
2022-07-29T14:45:48.701Z,48.50
2022-07-29T14:48:15.438Z,48.40
2022-07-29T14:50:42.067Z,48.40
2022-07-29T14:53:08.683Z,48.40
2022-07-29T14:55:35.359Z,48.40
2022-07-29T14:58:09.729Z,48.40
2022-07-29T15:00:38.839Z,48.40
2022-07-29T15:03:05.823Z,48.50
2022-07-29T15:05:32.546Z,48.50
2022-07-29T15:08:00.083Z,48.50
2022-07-29T15:10:29.862Z,48.50
2022-07-29T15:12:56.617Z,48.50
2022-07-29T15:15:23.314Z,48.50
2022-07-29T15:17:49.935Z,48.50
2022-07-29T15:20:16.573Z,48.50
2022-07-29T15:22:43.905Z,48.50
2022-07-29T15:25:10.687Z,48.50
2022-07-29T15:27:37.310Z,48.50
2022-07-29T15:30:04.321Z,48.50
2022-07-29T15:32:31.172Z,48.50
2022-07-29T15:34:57.792Z,48.50
2022-07-29T15:37:24.448Z,48.50
2022-07-29T15:39:51.233Z,48.50
2022-07-29T15:42:17.938Z,48.50
2022-07-29T15:44:44.615Z,48.50
2022-07-29T15:47:11.238Z,48.50
2022-07-29T15:49:47.970Z,48.50
2022-07-29T15:52:24.832Z,48.50
2022-07-29T15:54:53.699Z,48.50
2022-07-29T15:57:20.304Z,48.50
2022-07-29T15:59:47.068Z,48.60
2022-07-29T16:02:13.694Z,48.60
2022-07-29T16:04:40.356Z,48.60
2022-07-29T16:07:07.467Z,48.60
2022-07-29T16:09:34.111Z,48.60
2022-07-29T16:12:00.773Z,48.60
2022-07-29T16:14:28.078Z,48.60
2022-07-29T16:16:55.419Z,48.60
2022-07-29T16:19:22.413Z,48.70
2022-07-29T16:21:49.029Z,48.60
2022-07-29T16:24:15.659Z,48.70
2022-07-29T16:26:42.287Z,48.60
2022-07-29T16:29:08.887Z,48.60
2022-07-29T16:31:35.588Z,48.60
2022-07-29T16:34:02.566Z,48.60
2022-07-29T16:36:29.213Z,48.60
2022-07-29T16:38:55.825Z,48.60
2022-07-29T16:41:22.474Z,48.70
2022-07-29T16:43:49.086Z,48.70
2022-07-29T16:46:19.173Z,48.70
2022-07-29T16:48:46.840Z,48.70
2022-07-29T16:51:14.266Z,48.70
2022-07-29T16:53:41.427Z,48.80
2022-07-29T16:56:12.678Z,48.80
2022-07-29T16:58:43.570Z,49.40
2022-07-29T17:01:11.102Z,48.70
2022-07-29T17:04:00.128Z,48.70
2022-07-29T17:06:28.600Z,48.70
2022-07-29T17:08:56.183Z,48.80
2022-07-29T17:11:22.807Z,48.70
2022-07-29T17:14:10.091Z,48.70
2022-07-29T17:16:36.805Z,48.70
2022-07-29T17:19:03.528Z,48.70
2022-07-29T17:21:30.147Z,48.70
2022-07-29T17:23:58.725Z,48.60
2022-07-29T17:26:26.783Z,48.70
2022-07-29T17:28:54.831Z,48.70
2022-07-29T17:31:23.211Z,48.80
2022-07-29T17:33:49.886Z,48.80
2022-07-29T17:36:26.726Z,48.80
2022-07-29T17:38:54.667Z,48.80
2022-07-29T17:41:21.752Z,48.80
2022-07-29T17:43:49.119Z,48.80
2022-07-29T17:46:16.170Z,48.80
2022-07-29T17:48:42.834Z,48.80
2022-07-29T17:51:09.796Z,48.80
2022-07-29T17:53:36.904Z,48.80
2022-07-29T17:56:04.251Z,48.80
2022-07-29T17:58:31.981Z,48.70
2022-07-29T18:00:58.678Z,48.70
2022-07-29T18:03:25.453Z,48.60
2022-07-29T18:05:52.582Z,48.60
2022-07-29T18:08:19.223Z,48.60
2022-07-29T18:10:46.030Z,48.60
2022-07-29T18:13:12.811Z,48.60
2022-07-29T18:15:40.220Z,48.60
2022-07-29T18:18:06.953Z,48.60
2022-07-29T18:20:33.572Z,48.50
2022-07-29T18:23:00.463Z,48.50
2022-07-29T18:25:28.830Z,48.60
2022-07-29T18:28:00.151Z,48.60
2022-07-29T18:30:27.604Z,48.60
2022-07-29T18:33:19.103Z,48.60
2022-07-29T18:35:40.844Z,48.60
2022-07-29T18:38:07.464Z,48.70
2022-07-29T18:40:34.068Z,48.70
2022-07-29T18:43:00.687Z,48.60
2022-07-29T18:45:28.378Z,48.70
2022-07-29T18:47:56.192Z,48.70
2022-07-29T18:50:28.450Z,48.70
2022-07-29T18:52:58.431Z,48.70
2022-07-29T18:55:25.752Z,48.70
2022-07-29T18:57:54.987Z,48.60
2022-07-29T19:00:23.774Z,48.60
2022-07-29T19:02:50.473Z,48.60
2022-07-29T19:05:17.168Z,48.60
2022-07-29T19:07:43.778Z,48.60
2022-07-29T19:10:11.158Z,48.60
2022-07-29T19:12:37.839Z,48.60
2022-07-29T19:15:04.630Z,48.60
2022-07-29T19:17:31.253Z,48.60
2022-07-29T19:19:58.093Z,48.60
2022-07-29T19:22:24.749Z,48.60
2022-07-29T19:24:51.448Z,48.60
2022-07-29T19:27:18.120Z,48.60
2022-07-29T19:29:44.868Z,48.60
2022-07-29T19:32:11.727Z,48.60
2022-07-29T19:34:38.454Z,49.20
2022-07-29T19:37:05.293Z,48.70
2022-07-29T19:39:35.589Z,48.70
2022-07-29T19:42:03.547Z,48.70
2022-07-29T19:44:30.385Z,48.80
2022-07-29T19:46:59.346Z,48.70
2022-07-29T19:49:26.206Z,48.70
2022-07-29T19:51:53.324Z,48.70
2022-07-29T19:54:20.727Z,48.80
2022-07-29T19:56:47.346Z,48.70
2022-07-29T19:59:14.643Z,48.70
2022-07-29T20:01:41.321Z,48.70
2022-07-29T20:04:08.074Z,48.70
2022-07-29T20:06:34.887Z,48.70
2022-07-29T20:09:01.519Z,48.70
2022-07-29T20:11:29.632Z,48.70
2022-07-29T20:13:56.320Z,48.70
2022-07-29T20:16:23.074Z,48.70
2022-07-29T20:18:52.104Z,48.70
2022-07-29T20:21:18.719Z,48.70
2022-07-29T20:23:45.933Z,48.70
2022-07-29T20:26:12.694Z,48.70
2022-07-29T20:28:40.122Z,48.70
2022-07-29T20:31:06.988Z,48.70
2022-07-29T20:33:33.702Z,48.70
2022-07-29T20:36:00.335Z,48.70
2022-07-29T20:38:28.401Z,48.80
2022-07-29T20:40:58.463Z,48.90
2022-07-29T20:43:26.028Z,48.90
2022-07-29T20:45:52.752Z,48.90
2022-07-29T20:48:19.386Z,49.00
2022-07-29T20:50:47.499Z,49.00
2022-07-29T20:53:14.750Z,49.00
2022-07-29T20:55:41.440Z,49.00
2022-07-29T20:58:08.405Z,49.00
2022-07-29T21:00:35.054Z,48.80
2022-07-29T21:03:01.764Z,48.70
2022-07-29T21:05:28.434Z,48.80
2022-07-29T21:07:58.056Z,48.80
2022-07-29T21:10:25.635Z,48.70
2022-07-29T21:12:52.256Z,48.70
2022-07-29T21:15:20.779Z,48.70
2022-07-29T21:17:47.600Z,48.70
2022-07-29T21:20:15.337Z,48.70
2022-07-29T21:22:42.424Z,48.70
2022-07-29T21:25:09.894Z,48.70
2022-07-29T21:27:55.557Z,48.70
2022-07-29T21:30:22.245Z,48.70
2022-07-29T21:32:48.878Z,48.70
2022-07-29T21:35:30.277Z,48.70
2022-07-29T21:38:02.103Z,49.40
2022-07-29T21:40:29.927Z,48.80
2022-07-29T21:42:56.563Z,48.90
2022-07-29T21:45:23.228Z,48.90
2022-07-29T21:47:49.836Z,48.90
2022-07-29T21:50:16.470Z,48.90
2022-07-29T21:52:43.162Z,49.00
2022-07-29T21:55:10.668Z,48.90
2022-07-29T21:57:38.205Z,48.90
2022-07-29T22:00:06.443Z,49.00
2022-07-29T22:02:33.055Z,48.80
2022-07-29T22:04:59.680Z,48.80
2022-07-29T22:07:54.764Z,48.70
2022-07-29T22:10:12.905Z,48.70
2022-07-29T22:12:39.529Z,48.70
2022-07-29T22:15:06.597Z,48.70
2022-07-29T22:17:33.218Z,48.80
2022-07-29T22:19:59.828Z,48.70
2022-07-29T22:22:26.458Z,48.70
2022-07-29T22:24:53.063Z,48.70
2022-07-29T22:27:19.680Z,48.70
2022-07-29T22:29:46.283Z,48.70
2022-07-29T22:32:12.912Z,48.70
2022-07-29T22:34:39.527Z,48.70
2022-07-29T22:37:06.155Z,48.70
2022-07-29T22:39:32.764Z,48.70
2022-07-29T22:41:59.526Z,48.70
2022-07-29T22:44:26.134Z,48.80
2022-07-29T22:46:52.753Z,48.90
2022-07-29T22:49:19.565Z,48.90
2022-07-29T22:51:46.371Z,48.80
2022-07-29T22:54:13.017Z,48.90
2022-07-29T22:56:39.635Z,48.90
2022-07-29T22:59:06.274Z,49.00
2022-07-29T23:01:37.451Z,48.90
2022-07-29T23:04:05.325Z,48.90
2022-07-29T23:06:32.004Z,48.80
2022-07-29T23:08:58.616Z,48.80
2022-07-29T23:11:25.245Z,48.70
2022-07-29T23:13:52.027Z,48.70
2022-07-29T23:16:26.255Z,48.70
2022-07-29T23:18:53.933Z,48.70
2022-07-29T23:21:20.906Z,48.70
2022-07-29T23:23:48.448Z,48.70
2022-07-29T23:26:16.794Z,48.70
2022-07-29T23:28:47.063Z,48.70
2022-07-29T23:31:13.802Z,48.70
2022-07-29T23:33:43.519Z,48.70
2022-07-29T23:36:10.144Z,48.70
2022-07-29T23:38:40.798Z,48.70
2022-07-29T23:41:09.533Z,48.70
2022-07-29T23:43:36.987Z,48.70
2022-07-29T23:46:03.678Z,48.90
2022-07-29T23:48:31.791Z,48.90
2022-07-29T23:50:58.898Z,49.00
2022-07-29T23:53:25.524Z,49.00
2022-07-29T23:55:52.139Z,49.00
2022-07-29T23:58:18.765Z,49.00
